sensor_id;sensor_type;location;lat;lon;timestamp;temperature;humidity
3778;DHT22;1904;50.076;8.660;2023-05-10T00:02:22;14.60;53.30
3778;DHT22;1904;50.076;8.660;2023-05-10T00:07:52;14.70;61.90
3778;DHT22;1904;50.076;8.660;2023-05-10T00:10:34;14.60;67.60
3778;DHT22;1904;50.076;8.660;2023-05-10T00:13:00;14.50;68.60
3778;DHT22;1904;50.076;8.660;2023-05-10T00:15:34;14.50;70.20
3778;DHT22;1904;50.076;8.660;2023-05-10T00:21:10;14.40;70.60
3778;DHT22;1904;50.076;8.660;2023-05-10T00:23:46;14.40;71.50
3778;DHT22;1904;50.076;8.660;2023-05-10T00:26:22;14.40;65.50
3778;DHT22;1904;50.076;8.660;2023-05-10T00:28:48;14.40;64.30
3778;DHT22;1904;50.076;8.660;2023-05-10T00:31:22;14.40;64.50
3778;DHT22;1904;50.076;8.660;2023-05-10T00:33:58;14.30;68.50
3778;DHT22;1904;50.076;8.660;2023-05-10T00:36:28;14.30;67.00
3778;DHT22;1904;50.076;8.660;2023-05-10T00:39:16;14.20;69.40
3778;DHT22;1904;50.076;8.660;2023-05-10T00:41:46;14.30;68.50
3778;DHT22;1904;50.076;8.660;2023-05-10T00:44:22;14.30;64.80
3778;DHT22;1904;50.076;8.660;2023-05-10T00:46:49;14.10;62.30
3778;DHT22;1904;50.076;8.660;2023-05-10T00:49:16;14.10;66.00
3778;DHT22;1904;50.076;8.660;2023-05-10T00:51:52;14.20;64.60
3778;DHT22;1904;50.076;8.660;2023-05-10T00:54:22;14.20;61.70
3778;DHT22;1904;50.076;8.660;2023-05-10T00:57:12;14.20;61.00
3778;DHT22;1904;50.076;8.660;2023-05-10T00:59:38;14.10;62.00
3778;DHT22;1904;50.076;8.660;2023-05-10T01:02:05;14.10;62.30
3778;DHT22;1904;50.076;8.660;2023-05-10T01:04:35;14.00;66.80
3778;DHT22;1904;50.076;8.660;2023-05-10T01:10:34;13.90;69.30
3778;DHT22;1904;50.076;8.660;2023-05-10T01:13:04;13.90;75.70
3778;DHT22;1904;50.076;8.660;2023-05-10T01:15:31;13.90;80.40
3778;DHT22;1904;50.076;8.660;2023-05-10T01:18:35;13.80;78.00
3778;DHT22;1904;50.076;8.660;2023-05-10T01:21:31;13.80;81.90
3778;DHT22;1904;50.076;8.660;2023-05-10T01:30:16;13.80;72.70
3778;DHT22;1904;50.076;8.660;2023-05-10T01:39:24;13.70;80.10
3778;DHT22;1904;50.076;8.660;2023-05-10T01:48:07;13.70;83.00
3778;DHT22;1904;50.076;8.660;2023-05-10T01:50:36;13.70;81.50
3778;DHT22;1904;50.076;8.660;2023-05-10T01:53:18;13.70;81.20
3778;DHT22;1904;50.076;8.660;2023-05-10T01:55:53;13.70;81.80
3778;DHT22;1904;50.076;8.660;2023-05-10T01:58:24;13.70;80.80
3778;DHT22;1904;50.076;8.660;2023-05-10T02:01:05;13.70;71.90
3778;DHT22;1904;50.076;8.660;2023-05-10T02:03:35;13.70;75.60
3778;DHT22;1904;50.076;8.660;2023-05-10T02:06:05;13.80;74.20
3778;DHT22;1904;50.076;8.660;2023-05-10T02:08:41;13.80;70.60
3778;DHT22;1904;50.076;8.660;2023-05-10T02:11:23;13.80;68.30
3778;DHT22;1904;50.076;8.660;2023-05-10T02:13:53;13.80;66.00
3778;DHT22;1904;50.076;8.660;2023-05-10T02:16:23;13.70;67.90
3778;DHT22;1904;50.076;8.660;2023-05-10T02:19:10;13.60;71.60
3778;DHT22;1904;50.076;8.660;2023-05-10T02:21:38;13.60;73.00
3778;DHT22;1904;50.076;8.660;2023-05-10T02:24:34;13.70;73.90
3778;DHT22;1904;50.076;8.660;2023-05-10T02:27:04;13.70;70.70
3778;DHT22;1904;50.076;8.660;2023-05-10T02:29:41;13.70;68.00
3778;DHT22;1904;50.076;8.660;2023-05-10T02:32:24;13.60;68.70
3778;DHT22;1904;50.076;8.660;2023-05-10T02:35:00;13.60;72.30
3778;DHT22;1904;50.076;8.660;2023-05-10T02:37:28;13.50;83.40
3778;DHT22;1904;50.076;8.660;2023-05-10T02:39:55;13.50;82.20
3778;DHT22;1904;50.076;8.660;2023-05-10T02:42:27;13.60;82.60
3778;DHT22;1904;50.076;8.660;2023-05-10T02:44:56;13.60;81.60
3778;DHT22;1904;50.076;8.660;2023-05-10T02:47:29;13.50;81.90
3778;DHT22;1904;50.076;8.660;2023-05-10T02:50:04;13.50;83.40
3778;DHT22;1904;50.076;8.660;2023-05-10T02:52:44;13.50;81.40
3778;DHT22;1904;50.076;8.660;2023-05-10T02:55:24;13.50;81.50
3778;DHT22;1904;50.076;8.660;2023-05-10T02:58:00;13.50;81.30
3778;DHT22;1904;50.076;8.660;2023-05-10T03:00:28;13.50;86.10
3778;DHT22;1904;50.076;8.660;2023-05-10T03:03:16;13.50;81.40
3778;DHT22;1904;50.076;8.660;2023-05-10T03:05:46;13.50;79.00
3778;DHT22;1904;50.076;8.660;2023-05-10T03:08:23;13.60;75.60
3778;DHT22;1904;50.076;8.660;2023-05-10T03:14:10;13.60;68.20
3778;DHT22;1904;50.076;8.660;2023-05-10T03:17:10;13.60;64.70
3778;DHT22;1904;50.076;8.660;2023-05-10T03:19:39;13.50;69.10
3778;DHT22;1904;50.076;8.660;2023-05-10T03:22:34;13.50;65.30
3778;DHT22;1904;50.076;8.660;2023-05-10T03:25:11;13.50;67.10
3778;DHT22;1904;50.076;8.660;2023-05-10T03:27:40;13.50;69.50
3778;DHT22;1904;50.076;8.660;2023-05-10T03:30:17;13.50;68.90
3778;DHT22;1904;50.076;8.660;2023-05-10T03:32:43;13.50;67.40
3778;DHT22;1904;50.076;8.660;2023-05-10T03:35:23;13.50;67.80
3778;DHT22;1904;50.076;8.660;2023-05-10T03:38:04;13.50;65.10
3778;DHT22;1904;50.076;8.660;2023-05-10T03:40:40;13.50;64.00
3778;DHT22;1904;50.076;8.660;2023-05-10T03:43:22;13.50;65.00
3778;DHT22;1904;50.076;8.660;2023-05-10T03:45:52;13.50;67.00
3778;DHT22;1904;50.076;8.660;2023-05-10T03:48:34;13.40;74.60
3778;DHT22;1904;50.076;8.660;2023-05-10T03:51:34;13.40;75.00
3778;DHT22;1904;50.076;8.660;2023-05-10T03:54:16;13.50;74.60
3778;DHT22;1904;50.076;8.660;2023-05-10T03:56:52;13.50;72.70
3778;DHT22;1904;50.076;8.660;2023-05-10T03:59:18;13.60;68.00
3778;DHT22;1904;50.076;8.660;2023-05-10T04:02:04;13.60;67.10
3778;DHT22;1904;50.076;8.660;2023-05-10T04:05:04;13.60;66.10
3778;DHT22;1904;50.076;8.660;2023-05-10T04:07:46;13.70;60.60
3778;DHT22;1904;50.076;8.660;2023-05-10T04:10:14;13.70;57.60
3778;DHT22;1904;50.076;8.660;2023-05-10T04:12:58;13.70;54.30
3778;DHT22;1904;50.076;8.660;2023-05-10T04:15:34;13.70;52.10
3778;DHT22;1904;50.076;8.660;2023-05-10T04:21:23;13.80;51.20
3778;DHT22;1904;50.076;8.660;2023-05-10T04:23:52;13.80;49.60
3778;DHT22;1904;50.076;8.660;2023-05-10T04:26:34;13.90;49.70
3778;DHT22;1904;50.076;8.660;2023-05-10T04:29:04;13.90;49.50
3778;DHT22;1904;50.076;8.660;2023-05-10T04:31:40;13.90;45.40
3778;DHT22;1904;50.076;8.660;2023-05-10T04:34:16;14.00;45.50
3778;DHT22;1904;50.076;8.660;2023-05-10T04:36:46;14.10;45.60
3778;DHT22;1904;50.076;8.660;2023-05-10T04:39:22;14.10;45.60
3778;DHT22;1904;50.076;8.660;2023-05-10T04:42:04;14.30;45.90
3778;DHT22;1904;50.076;8.660;2023-05-10T04:45:04;14.30;45.70
3778;DHT22;1904;50.076;8.660;2023-05-10T04:47:34;14.40;45.80
3778;DHT22;1904;50.076;8.660;2023-05-10T04:53:11;14.50;45.90
3778;DHT22;1904;50.076;8.660;2023-05-10T04:55:46;14.60;46.20
3778;DHT22;1904;50.076;8.660;2023-05-10T04:58:16;14.50;45.90
3778;DHT22;1904;50.076;8.660;2023-05-10T05:00:46;14.60;46.00
3778;DHT22;1904;50.076;8.660;2023-05-10T05:03:16;14.70;46.10
3778;DHT22;1904;50.076;8.660;2023-05-10T05:05:52;14.80;46.10
3778;DHT22;1904;50.076;8.660;2023-05-10T05:08:22;14.90;42.40
3778;DHT22;1904;50.076;8.660;2023-05-10T05:13:59;14.70;35.10
3778;DHT22;1904;50.076;8.660;2023-05-10T05:16:35;14.70;33.80
3778;DHT22;1904;50.076;8.660;2023-05-10T05:19:34;14.80;31.60
3778;DHT22;1904;50.076;8.660;2023-05-10T05:22:06;14.80;23.00
3778;DHT22;1904;50.076;8.660;2023-05-10T05:24:40;14.80;24.40
3778;DHT22;1904;50.076;8.660;2023-05-10T05:27:16;14.80;24.00
3778;DHT22;1904;50.076;8.660;2023-05-10T05:30:04;14.90;22.90
3778;DHT22;1904;50.076;8.660;2023-05-10T05:32:34;14.90;23.30
3778;DHT22;1904;50.076;8.660;2023-05-10T05:35:22;14.80;23.30
3778;DHT22;1904;50.076;8.660;2023-05-10T05:37:47;14.80;21.10
3778;DHT22;1904;50.076;8.660;2023-05-10T05:40:16;14.80;19.00
3778;DHT22;1904;50.076;8.660;2023-05-10T05:42:58;14.80;21.70
3778;DHT22;1904;50.076;8.660;2023-05-10T05:45:40;14.70;28.80
3778;DHT22;1904;50.076;8.660;2023-05-10T05:48:10;14.70;30.70
3778;DHT22;1904;50.076;8.660;2023-05-10T05:50:46;14.90;29.00
3778;DHT22;1904;50.076;8.660;2023-05-10T05:53:16;14.90;24.40
3778;DHT22;1904;50.076;8.660;2023-05-10T05:55:53;14.90;19.20
3778;DHT22;1904;50.076;8.660;2023-05-10T05:58:23;15.00;17.30
3778;DHT22;1904;50.076;8.660;2023-05-10T06:00:52;14.80;19.20
3778;DHT22;1904;50.076;8.660;2023-05-10T06:03:28;14.90;16.90
3778;DHT22;1904;50.076;8.660;2023-05-10T06:06:04;15.00;17.70
3778;DHT22;1904;50.076;8.660;2023-05-10T06:08:34;15.00;18.00
3778;DHT22;1904;50.076;8.660;2023-05-10T06:11:00;15.20;17.00
3778;DHT22;1904;50.076;8.660;2023-05-10T06:13:52;15.30;15.50
3778;DHT22;1904;50.076;8.660;2023-05-10T06:16:22;15.40;10.40
3778;DHT22;1904;50.076;8.660;2023-05-10T06:18:58;15.20;8.40
3778;DHT22;1904;50.076;8.660;2023-05-10T06:21:52;15.30;6.50
3778;DHT22;1904;50.076;8.660;2023-05-10T06:24:18;15.50;6.30
3778;DHT22;1904;50.076;8.660;2023-05-10T06:26:52;15.80;1.00
3778;DHT22;1904;50.076;8.660;2023-05-10T06:29:34;15.80;1.00
3778;DHT22;1904;50.076;8.660;2023-05-10T06:35:34;15.90;1.00
3778;DHT22;1904;50.076;8.660;2023-05-10T06:38:04;16.00;1.00
3778;DHT22;1904;50.076;8.660;2023-05-10T06:40:34;15.90;1.00
3778;DHT22;1904;50.076;8.660;2023-05-10T06:43:04;15.80;1.00
3778;DHT22;1904;50.076;8.660;2023-05-10T06:45:34;15.80;1.00
3778;DHT22;1904;50.076;8.660;2023-05-10T06:48:04;15.90;1.00
3778;DHT22;1904;50.076;8.660;2023-05-10T06:50:34;15.90;1.00
3778;DHT22;1904;50.076;8.660;2023-05-10T06:53:04;16.00;1.00
3778;DHT22;1904;50.076;8.660;2023-05-10T06:55:34;15.90;1.00
3778;DHT22;1904;50.076;8.660;2023-05-10T06:58:04;15.90;1.00
3778;DHT22;1904;50.076;8.660;2023-05-10T07:00:52;16.00;1.00
3778;DHT22;1904;50.076;8.660;2023-05-10T07:03:22;16.30;1.00
3778;DHT22;1904;50.076;8.660;2023-05-10T07:05:52;16.40;1.00
3778;DHT22;1904;50.076;8.660;2023-05-10T07:08:22;16.40;1.00
3778;DHT22;1904;50.076;8.660;2023-05-10T07:10:52;16.50;1.00
3778;DHT22;1904;50.076;8.660;2023-05-10T07:13:22;16.70;1.00
3778;DHT22;1904;50.076;8.660;2023-05-10T07:15:52;16.90;1.00
3778;DHT22;1904;50.076;8.660;2023-05-10T07:18:22;16.80;1.00
3778;DHT22;1904;50.076;8.660;2023-05-10T07:24:04;16.70;1.00
3778;DHT22;1904;50.076;8.660;2023-05-10T07:26:34;16.80;1.00
3778;DHT22;1904;50.076;8.660;2023-05-10T07:29:04;16.90;1.00
3778;DHT22;1904;50.076;8.660;2023-05-10T07:31:34;17.00;1.00
3778;DHT22;1904;50.076;8.660;2023-05-10T07:37:34;16.90;1.00
3778;DHT22;1904;50.076;8.660;2023-05-10T07:40:05;17.00;1.00
3778;DHT22;1904;50.076;8.660;2023-05-10T07:42:31;17.10;1.00
3778;DHT22;1904;50.076;8.660;2023-05-10T07:45:04;17.30;1.00
3778;DHT22;1904;50.076;8.660;2023-05-10T07:47:34;17.20;1.00
3778;DHT22;1904;50.076;8.660;2023-05-10T07:50:16;17.20;1.00
3778;DHT22;1904;50.076;8.660;2023-05-10T07:52:47;17.40;1.00
3778;DHT22;1904;50.076;8.660;2023-05-10T07:55:22;17.40;1.00
3778;DHT22;1904;50.076;8.660;2023-05-10T07:58:04;17.50;1.00
3778;DHT22;1904;50.076;8.660;2023-05-10T08:00:34;17.60;1.00
3778;DHT22;1904;50.076;8.660;2023-05-10T08:03:16;17.80;1.00
3778;DHT22;1904;50.076;8.660;2023-05-10T08:05:52;17.90;1.00
3778;DHT22;1904;50.076;8.660;2023-05-10T08:08:23;18.30;1.00
3778;DHT22;1904;50.076;8.660;2023-05-10T08:14:04;18.40;1.00
3778;DHT22;1904;50.076;8.660;2023-05-10T08:16:34;18.30;1.00
3778;DHT22;1904;50.076;8.660;2023-05-10T08:19:04;18.40;1.00
3778;DHT22;1904;50.076;8.660;2023-05-10T08:21:34;18.10;1.00
3778;DHT22;1904;50.076;8.660;2023-05-10T08:27:28;18.20;1.00
3778;DHT22;1904;50.076;8.660;2023-05-10T08:30:05;18.40;1.00
3778;DHT22;1904;50.076;8.660;2023-05-10T08:32:34;18.40;1.00
3778;DHT22;1904;50.076;8.660;2023-05-10T08:35:04;18.50;1.00
3778;DHT22;1904;50.076;8.660;2023-05-10T08:37:40;18.50;1.00
3778;DHT22;1904;50.076;8.660;2023-05-10T08:40:19;18.50;1.00
3778;DHT22;1904;50.076;8.660;2023-05-10T08:43:06;18.60;1.00
3778;DHT22;1904;50.076;8.660;2023-05-10T08:45:39;18.20;1.00
3778;DHT22;1904;50.076;8.660;2023-05-10T08:48:34;18.20;1.00
3778;DHT22;1904;50.076;8.660;2023-05-10T08:51:04;18.30;1.00
3778;DHT22;1904;50.076;8.660;2023-05-10T08:54:04;18.30;1.00
3778;DHT22;1904;50.076;8.660;2023-05-10T08:57:04;18.50;1.00
3778;DHT22;1904;50.076;8.660;2023-05-10T08:59:30;18.70;1.00
3778;DHT22;1904;50.076;8.660;2023-05-10T09:01:59;18.90;1.00
3778;DHT22;1904;50.076;8.660;2023-05-10T09:04:35;18.90;1.00
3778;DHT22;1904;50.076;8.660;2023-05-10T09:07:00;18.90;1.00
3778;DHT22;1904;50.076;8.660;2023-05-10T09:09:28;18.90;1.00
3778;DHT22;1904;50.076;8.660;2023-05-10T09:12:04;18.80;1.00
3778;DHT22;1904;50.076;8.660;2023-05-10T09:15:05;19.00;1.00
3778;DHT22;1904;50.076;8.660;2023-05-10T09:17:34;19.20;1.00
3778;DHT22;1904;50.076;8.660;2023-05-10T09:20:02;18.80;1.00
3778;DHT22;1904;50.076;8.660;2023-05-10T09:22:40;18.80;1.00
3778;DHT22;1904;50.076;8.660;2023-05-10T09:25:14;19.10;1.00
3778;DHT22;1904;50.076;8.660;2023-05-10T09:27:43;19.10;1.00
3778;DHT22;1904;50.076;8.660;2023-05-10T09:30:33;18.80;1.00
3778;DHT22;1904;50.076;8.660;2023-05-10T09:32:59;19.10;1.00
3778;DHT22;1904;50.076;8.660;2023-05-10T09:35:31;19.30;1.00
3778;DHT22;1904;50.076;8.660;2023-05-10T09:38:05;19.50;1.00
3778;DHT22;1904;50.076;8.660;2023-05-10T09:40:31;19.50;1.00
3778;DHT22;1904;50.076;8.660;2023-05-10T09:43:16;19.40;1.00
3778;DHT22;1904;50.076;8.660;2023-05-10T09:45:58;19.20;1.00
3778;DHT22;1904;50.076;8.660;2023-05-10T09:48:28;19.00;1.00
3778;DHT22;1904;50.076;8.660;2023-05-10T09:50:57;19.00;1.00
3778;DHT22;1904;50.076;8.660;2023-05-10T09:53:28;18.90;1.00
3778;DHT22;1904;50.076;8.660;2023-05-10T09:55:58;18.70;1.00
3778;DHT22;1904;50.076;8.660;2023-05-10T09:58:36;18.70;1.00
3778;DHT22;1904;50.076;8.660;2023-05-10T10:01:03;18.20;1.00
3778;DHT22;1904;50.076;8.660;2023-05-10T10:03:30;17.70;1.00
3778;DHT22;1904;50.076;8.660;2023-05-10T10:06:07;17.70;1.00
3778;DHT22;1904;50.076;8.660;2023-05-10T10:08:35;17.30;1.00
3778;DHT22;1904;50.076;8.660;2023-05-10T10:11:04;17.40;1.00
3778;DHT22;1904;50.076;8.660;2023-05-10T10:13:34;17.60;1.00
3778;DHT22;1904;50.076;8.660;2023-05-10T10:16:16;17.50;1.00
3778;DHT22;1904;50.076;8.660;2023-05-10T10:18:58;17.70;1.00
3778;DHT22;1904;50.076;8.660;2023-05-10T10:21:24;18.30;1.00
3778;DHT22;1904;50.076;8.660;2023-05-10T10:23:52;18.70;1.00
3778;DHT22;1904;50.076;8.660;2023-05-10T10:26:18;18.80;1.00
3778;DHT22;1904;50.076;8.660;2023-05-10T10:29:19;19.20;1.00
3778;DHT22;1904;50.076;8.660;2023-05-10T10:39:07;19.20;1.00
3778;DHT22;1904;50.076;8.660;2023-05-10T10:41:36;18.70;1.00
3778;DHT22;1904;50.076;8.660;2023-05-10T10:50:06;17.50;1.00
3778;DHT22;1904;50.076;8.660;2023-05-10T10:52:41;17.50;1.00
3778;DHT22;1904;50.076;8.660;2023-05-10T10:57:53;17.80;1.00
3778;DHT22;1904;50.076;8.660;2023-05-10T11:00:29;17.90;1.00
3778;DHT22;1904;50.076;8.660;2023-05-10T11:03:28;17.90;1.00
3778;DHT22;1904;50.076;8.660;2023-05-10T11:05:58;18.20;1.00
3778;DHT22;1904;50.076;8.660;2023-05-10T11:08:41;18.40;1.00
3778;DHT22;1904;50.076;8.660;2023-05-10T11:11:28;18.60;1.00
3778;DHT22;1904;50.076;8.660;2023-05-10T11:14:03;19.00;1.00
3778;DHT22;1904;50.076;8.660;2023-05-10T11:16:55;19.40;1.00
3778;DHT22;1904;50.076;8.660;2023-05-10T11:19:28;19.80;1.00
3778;DHT22;1904;50.076;8.660;2023-05-10T11:24:34;19.80;1.00
3778;DHT22;1904;50.076;8.660;2023-05-10T11:27:05;19.80;1.00
3778;DHT22;1904;50.076;8.660;2023-05-10T11:29:34;19.90;1.00
3778;DHT22;1904;50.076;8.660;2023-05-10T11:32:00;20.00;1.00
3778;DHT22;1904;50.076;8.660;2023-05-10T11:34:30;20.10;1.00
3778;DHT22;1904;50.076;8.660;2023-05-10T11:36:57;20.10;1.00
3778;DHT22;1904;50.076;8.660;2023-05-10T11:39:34;20.00;1.00
3778;DHT22;1904;50.076;8.660;2023-05-10T11:42:04;19.60;1.00
3778;DHT22;1904;50.076;8.660;2023-05-10T11:44:35;19.40;1.00
3778;DHT22;1904;50.076;8.660;2023-05-10T11:47:05;19.10;1.00
3778;DHT22;1904;50.076;8.660;2023-05-10T11:49:34;18.70;1.00
3778;DHT22;1904;50.076;8.660;2023-05-10T11:52:07;18.30;1.00
3778;DHT22;1904;50.076;8.660;2023-05-10T11:54:34;18.30;1.00
3778;DHT22;1904;50.076;8.660;2023-05-10T11:57:00;18.40;1.00
3778;DHT22;1904;50.076;8.660;2023-05-10T11:59:28;18.40;1.00
3778;DHT22;1904;50.076;8.660;2023-05-10T12:01:54;18.20;1.00
3778;DHT22;1904;50.076;8.660;2023-05-10T12:04:20;18.10;1.00
3778;DHT22;1904;50.076;8.660;2023-05-10T12:10:10;18.70;1.00
3778;DHT22;1904;50.076;8.660;2023-05-10T12:12:40;19.30;1.00
3778;DHT22;1904;50.076;8.660;2023-05-10T12:15:19;19.70;1.00
3778;DHT22;1904;50.076;8.660;2023-05-10T12:17:53;20.00;1.00
3778;DHT22;1904;50.076;8.660;2023-05-10T12:20:23;20.30;1.00
3778;DHT22;1904;50.076;8.660;2023-05-10T12:23:04;20.80;1.00
3778;DHT22;1904;50.076;8.660;2023-05-10T12:25:32;21.50;1.00
3778;DHT22;1904;50.076;8.660;2023-05-10T12:28:08;22.00;1.00
3778;DHT22;1904;50.076;8.660;2023-05-10T12:30:35;22.00;1.00
3778;DHT22;1904;50.076;8.660;2023-05-10T12:33:09;21.50;1.00
3778;DHT22;1904;50.076;8.660;2023-05-10T12:36:04;21.10;1.00
3778;DHT22;1904;50.076;8.660;2023-05-10T12:38:35;21.50;1.00
3778;DHT22;1904;50.076;8.660;2023-05-10T12:41:06;21.80;1.00
3778;DHT22;1904;50.076;8.660;2023-05-10T12:43:35;21.50;1.00
3778;DHT22;1904;50.076;8.660;2023-05-10T12:46:11;21.70;1.00
3778;DHT22;1904;50.076;8.660;2023-05-10T12:49:05;21.80;1.00
3778;DHT22;1904;50.076;8.660;2023-05-10T12:51:31;21.70;1.00
3778;DHT22;1904;50.076;8.660;2023-05-10T12:53:58;21.70;1.00
3778;DHT22;1904;50.076;8.660;2023-05-10T12:56:28;21.60;1.00
3778;DHT22;1904;50.076;8.660;2023-05-10T12:58:54;21.90;1.00
3778;DHT22;1904;50.076;8.660;2023-05-10T13:01:20;21.90;1.00
3778;DHT22;1904;50.076;8.660;2023-05-10T13:03:46;21.90;1.00
3778;DHT22;1904;50.076;8.660;2023-05-10T13:06:22;21.90;1.00
3778;DHT22;1904;50.076;8.660;2023-05-10T13:09:10;21.40;1.00
3778;DHT22;1904;50.076;8.660;2023-05-10T13:11:47;20.80;1.00
3778;DHT22;1904;50.076;8.660;2023-05-10T13:17:29;20.70;1.00
3778;DHT22;1904;50.076;8.660;2023-05-10T13:20:28;20.70;1.00
3778;DHT22;1904;50.076;8.660;2023-05-10T13:22:58;20.60;1.00
3778;DHT22;1904;50.076;8.660;2023-05-10T13:25:46;20.60;1.00
3778;DHT22;1904;50.076;8.660;2023-05-10T13:28:46;21.00;1.00
3778;DHT22;1904;50.076;8.660;2023-05-10T13:31:12;21.00;1.00
3778;DHT22;1904;50.076;8.660;2023-05-10T13:33:46;20.90;1.00
3778;DHT22;1904;50.076;8.660;2023-05-10T13:39:34;21.30;1.00
3778;DHT22;1904;50.076;8.660;2023-05-10T13:42:05;21.20;1.00
3778;DHT22;1904;50.076;8.660;2023-05-10T13:44:34;21.40;1.00
3778;DHT22;1904;50.076;8.660;2023-05-10T13:47:05;21.60;1.00
3778;DHT22;1904;50.076;8.660;2023-05-10T13:49:31;21.50;1.00
3778;DHT22;1904;50.076;8.660;2023-05-10T13:52:04;21.70;1.00
3778;DHT22;1904;50.076;8.660;2023-05-10T14:01:41;21.30;1.00
3778;DHT22;1904;50.076;8.660;2023-05-10T14:04:08;21.40;1.00
3778;DHT22;1904;50.076;8.660;2023-05-10T14:07:10;21.30;1.00
3778;DHT22;1904;50.076;8.660;2023-05-10T14:09:52;21.80;1.00
3778;DHT22;1904;50.076;8.660;2023-05-10T14:15:41;22.00;1.00
3778;DHT22;1904;50.076;8.660;2023-05-10T14:18:34;21.90;1.00
3778;DHT22;1904;50.076;8.660;2023-05-10T14:24:22;20.90;1.00
3778;DHT22;1904;50.076;8.660;2023-05-10T14:30:09;21.20;1.00
3778;DHT22;1904;50.076;8.660;2023-05-10T14:39:05;21.90;1.00
3778;DHT22;1904;50.076;8.660;2023-05-10T14:58:12;22.00;1.00
3778;DHT22;1904;50.076;8.660;2023-05-10T15:00:38;21.90;1.00
3778;DHT22;1904;50.076;8.660;2023-05-10T15:06:35;21.80;1.00
3778;DHT22;1904;50.076;8.660;2023-05-10T15:12:17;21.50;1.00
3778;DHT22;1904;50.076;8.660;2023-05-10T15:18:05;21.40;1.00
3778;DHT22;1904;50.076;8.660;2023-05-10T15:20:40;21.50;1.00
3778;DHT22;1904;50.076;8.660;2023-05-10T15:36:41;22.10;1.00
3778;DHT22;1904;50.076;8.660;2023-05-10T15:39:34;21.60;1.00
3778;DHT22;1904;50.076;8.660;2023-05-10T15:45:22;21.70;1.00
3778;DHT22;1904;50.076;8.660;2023-05-10T15:54:31;20.90;1.00
3778;DHT22;1904;50.076;8.660;2023-05-10T16:03:39;20.70;1.00
3778;DHT22;1904;50.076;8.660;2023-05-10T16:06:05;20.60;1.00
3778;DHT22;1904;50.076;8.660;2023-05-10T16:08:58;20.80;1.00
3778;DHT22;1904;50.076;8.660;2023-05-10T16:11:44;21.00;1.00
3778;DHT22;1904;50.076;8.660;2023-05-10T16:17:52;20.80;1.00
3778;DHT22;1904;50.076;8.660;2023-05-10T16:20:40;20.70;1.00
3778;DHT22;1904;50.076;8.660;2023-05-10T16:29:40;20.10;1.00
3778;DHT22;1904;50.076;8.660;2023-05-10T16:32:11;20.30;1.00
3778;DHT22;1904;50.076;8.660;2023-05-10T16:34:47;20.50;1.00
3778;DHT22;1904;50.076;8.660;2023-05-10T16:37:14;20.60;1.00
3778;DHT22;1904;50.076;8.660;2023-05-10T16:39:47;20.50;1.00
3778;DHT22;1904;50.076;8.660;2023-05-10T16:42:34;20.40;1.00
3778;DHT22;1904;50.076;8.660;2023-05-10T16:48:40;20.40;1.00
3778;DHT22;1904;50.076;8.660;2023-05-10T16:54:29;20.30;1.00
3778;DHT22;1904;50.076;8.660;2023-05-10T17:00:23;20.20;1.00
3778;DHT22;1904;50.076;8.660;2023-05-10T17:02:59;20.10;1.00
3778;DHT22;1904;50.076;8.660;2023-05-10T17:05:25;20.50;1.00
3778;DHT22;1904;50.076;8.660;2023-05-10T17:08:05;20.70;1.00
3778;DHT22;1904;50.076;8.660;2023-05-10T17:10:38;20.90;1.00
3778;DHT22;1904;50.076;8.660;2023-05-10T17:13:29;20.90;1.00
3778;DHT22;1904;50.076;8.660;2023-05-10T17:16:11;21.10;1.00
3778;DHT22;1904;50.076;8.660;2023-05-10T17:18:47;21.10;1.00
3778;DHT22;1904;50.076;8.660;2023-05-10T17:21:29;21.30;1.00
3778;DHT22;1904;50.076;8.660;2023-05-10T17:23:59;21.30;1.00
3778;DHT22;1904;50.076;8.660;2023-05-10T17:26:46;21.40;1.00
3778;DHT22;1904;50.076;8.660;2023-05-10T17:29:12;21.60;1.00
3778;DHT22;1904;50.076;8.660;2023-05-10T17:31:53;21.70;1.00
3778;DHT22;1904;50.076;8.660;2023-05-10T17:34:40;21.50;1.00
3778;DHT22;1904;50.076;8.660;2023-05-10T17:37:07;21.20;1.00
3778;DHT22;1904;50.076;8.660;2023-05-10T17:39:35;21.10;1.00
3778;DHT22;1904;50.076;8.660;2023-05-10T17:42:11;20.90;1.00
3778;DHT22;1904;50.076;8.660;2023-05-10T17:44:41;20.90;1.00
3778;DHT22;1904;50.076;8.660;2023-05-10T17:47:11;20.80;1.00
3778;DHT22;1904;50.076;8.660;2023-05-10T17:49:38;20.70;1.00
3778;DHT22;1904;50.076;8.660;2023-05-10T17:52:04;20.40;1.00
3778;DHT22;1904;50.076;8.660;2023-05-10T17:54:35;20.00;1.00
3778;DHT22;1904;50.076;8.660;2023-05-10T17:57:34;19.90;1.00
3778;DHT22;1904;50.076;8.660;2023-05-10T18:00:28;19.80;1.00
3778;DHT22;1904;50.076;8.660;2023-05-10T18:03:11;19.70;1.00
3778;DHT22;1904;50.076;8.660;2023-05-10T18:12:16;18.90;1.00
3778;DHT22;1904;50.076;8.660;2023-05-10T18:14:47;18.70;1.00
3778;DHT22;1904;50.076;8.660;2023-05-10T18:20:34;18.60;1.00
3778;DHT22;1904;50.076;8.660;2023-05-10T18:26:53;18.10;1.00
3778;DHT22;1904;50.076;8.660;2023-05-10T18:32:59;18.00;1.00
3778;DHT22;1904;50.076;8.660;2023-05-10T18:38:46;17.70;1.00
3778;DHT22;1904;50.076;8.660;2023-05-10T18:44:34;17.40;1.00
3778;DHT22;1904;50.076;8.660;2023-05-10T18:53:29;16.90;1.00
3778;DHT22;1904;50.076;8.660;2023-05-10T18:59:17;16.50;1.00
3778;DHT22;1904;50.076;8.660;2023-05-10T19:05:34;16.20;1.00
3778;DHT22;1904;50.076;8.660;2023-05-10T19:11:59;15.70;1.00
3778;DHT22;1904;50.076;8.660;2023-05-10T19:14:46;15.50;1.00
3778;DHT22;1904;50.076;8.660;2023-05-10T19:20:35;15.20;1.00
3778;DHT22;1904;50.076;8.660;2023-05-10T19:29:43;14.80;1.00
3778;DHT22;1904;50.076;8.660;2023-05-10T19:35:30;14.40;1.00
3778;DHT22;1904;50.076;8.660;2023-05-10T19:41:42;14.20;1.00
3778;DHT22;1904;50.076;8.660;2023-05-10T19:47:30;13.90;1.00
3778;DHT22;1904;50.076;8.660;2023-05-10T19:59:52;13.60;1.00
3778;DHT22;1904;50.076;8.660;2023-05-10T20:05:40;13.60;1.00
3778;DHT22;1904;50.076;8.660;2023-05-10T20:08:34;13.50;1.00
3778;DHT22;1904;50.076;8.660;2023-05-10T20:14:22;13.50;1.00
3778;DHT22;1904;50.076;8.660;2023-05-10T20:20:11;13.40;1.00
3778;DHT22;1904;50.076;8.660;2023-05-10T20:23:04;13.40;1.00
3778;DHT22;1904;50.076;8.660;2023-05-10T20:26:04;13.30;1.00
3778;DHT22;1904;50.076;8.660;2023-05-10T20:32:11;13.30;1.00
3778;DHT22;1904;50.076;8.660;2023-05-10T20:34:37;13.70;1.00
3778;DHT22;1904;50.076;8.660;2023-05-10T20:37:02;13.20;1.00
3778;DHT22;1904;50.076;8.660;2023-05-10T20:39:28;13.10;1.00
3778;DHT22;1904;50.076;8.660;2023-05-10T20:42:05;13.00;1.00
3778;DHT22;1904;50.076;8.660;2023-05-10T20:44:31;12.90;1.00
3778;DHT22;1904;50.076;8.660;2023-05-10T20:50:18;12.80;1.00
3778;DHT22;1904;50.076;8.660;2023-05-10T20:59:48;12.70;1.00
3778;DHT22;1904;50.076;8.660;2023-05-10T21:08:39;12.60;1.00
3778;DHT22;1904;50.076;8.660;2023-05-10T21:15:05;12.40;1.00
3778;DHT22;1904;50.076;8.660;2023-05-10T21:17:30;12.40;1.00
3778;DHT22;1904;50.076;8.660;2023-05-10T21:20:11;12.40;1.00
3778;DHT22;1904;50.076;8.660;2023-05-10T21:22:37;12.30;1.00
3778;DHT22;1904;50.076;8.660;2023-05-10T21:25:03;12.30;1.00
3778;DHT22;1904;50.076;8.660;2023-05-10T21:27:29;12.30;1.00
3778;DHT22;1904;50.076;8.660;2023-05-10T21:30:05;12.20;1.00
3778;DHT22;1904;50.076;8.660;2023-05-10T21:32:31;12.20;1.00
3778;DHT22;1904;50.076;8.660;2023-05-10T21:34:57;12.10;1.00
3778;DHT22;1904;50.076;8.660;2023-05-10T21:37:23;12.20;1.00
3778;DHT22;1904;50.076;8.660;2023-05-10T21:39:48;12.10;1.00
3778;DHT22;1904;50.076;8.660;2023-05-10T21:42:14;12.10;1.00
3778;DHT22;1904;50.076;8.660;2023-05-10T21:44:41;12.10;1.00
3778;DHT22;1904;50.076;8.660;2023-05-10T21:47:07;12.10;1.00
3778;DHT22;1904;50.076;8.660;2023-05-10T21:49:35;12.00;1.00
3778;DHT22;1904;50.076;8.660;2023-05-10T21:52:01;12.10;1.00